Time;durP1;ratioP1;P1;durP2;ratioP2;P2;SDS_P1;SDS_P2;PMS_P1;PMS_P2;Temp;Humidity;BMP_temperature;BMP_pressure;BME280_temperature;BME280_humidity;BME280_pressure;Samples;Min_cycle;Max_cycle;Signal;HPM_P1;HPM_P2
2022/04/19 00:00:47;;;;;;;8.15;6.43;;;18.60;51.90;;;;;;3898660;30;20049;-64
2022/04/19 00:03:10;;;;;;;9.15;6.45;;;18.60;52.00;;;;;;3912337;30;20482;-64
2022/04/19 00:05:33;;;;;;;8.27;6.20;;;18.50;52.00;;;;;;3912453;30;20106;-64
2022/04/19 00:07:57;;;;;;;7.85;6.38;;;18.50;52.80;;;;;;3898758;30;20069;-64
2022/04/19 00:10:19;;;;;;;8.23;6.15;;;18.50;52.00;;;;;;3912053;30;20143;-64
2022/04/19 00:12:43;;;;;;;8.00;6.13;;;18.50;52.10;;;;;;3914797;30;20146;-65
2022/04/19 00:15:05;;;;;;;6.60;5.53;;;18.50;51.90;;;;;;3915363;30;20060;-64
2022/04/19 00:17:27;;;;;;;9.15;6.95;;;18.50;52.00;;;;;;3914815;30;20056;-64
2022/04/19 00:19:49;;;;;;;7.60;6.60;;;18.50;52.00;;;;;;3914960;30;20424;-64
2022/04/19 00:22:12;;;;;;;8.85;6.75;;;18.50;52.00;;;;;;3914593;30;20124;-64
2022/04/19 00:24:36;;;;;;;8.85;6.45;;;18.40;51.90;;;;;;3915085;30;20059;-64
2022/04/19 00:26:58;;;;;;;7.38;5.93;;;18.40;52.00;;;;;;3915234;30;20453;-64
2022/04/19 00:29:21;;;;;;;8.35;6.43;;;18.40;52.00;;;;;;3915122;30;20063;-64
2022/04/19 00:31:43;;;;;;;7.47;5.93;;;18.40;52.00;;;;;;3901561;30;20434;-64
2022/04/19 00:34:06;;;;;;;7.63;6.40;;;18.40;52.10;;;;;;3901933;30;21556;-64
2022/04/19 00:36:28;;;;;;;10.32;7.10;;;18.40;52.10;;;;;;3915132;30;20064;-64
2022/04/19 00:38:50;;;;;;;7.38;5.88;;;18.40;52.10;;;;;;3901210;30;20081;-64
2022/04/19 00:41:13;;;;;;;7.20;6.00;;;18.40;52.10;;;;;;3887459;30;20112;-64
2022/04/19 00:43:36;;;;;;;9.23;6.25;;;18.40;52.20;;;;;;3906307;30;20092;-63
2022/04/19 00:45:57;;;;;;;8.40;6.63;;;18.30;52.10;;;;;;3915088;30;20052;-64
2022/04/19 00:48:21;;;;;;;10.35;6.88;;;18.30;52.20;;;;;;3913894;30;20435;-64
2022/04/19 00:50:45;;;;;;;8.10;6.35;;;18.30;52.10;;;;;;3901469;30;20061;-63
2022/04/19 00:53:12;;;;;;;7.18;6.07;;;18.30;52.10;;;;;;3901629;30;20559;-63
2022/04/19 00:55:35;;;;;;;8.02;6.15;;;18.30;52.10;;;;;;3889469;30;20111;-63
2022/04/19 00:57:59;;;;;;;8.38;6.72;;;18.30;52.20;;;;;;3901470;30;20053;-64
2022/04/19 01:00:22;;;;;;;7.38;6.10;;;18.30;52.20;;;;;;3898869;30;20053;-63
2022/04/19 01:02:57;;;;;;;7.72;5.65;;;18.20;52.20;;;;;;3898908;30;20192;-63
2022/04/19 01:05:22;;;;;;;7.45;5.82;;;18.20;52.30;;;;;;3899439;30;20063;-64
2022/04/19 01:07:46;;;;;;;8.32;6.25;;;18.20;52.30;;;;;;3899458;30;20107;-64
2022/04/19 01:10:18;;;;;;;8.27;6.63;;;18.20;52.30;;;;;;3910980;30;20488;-64
2022/04/19 01:15:22;;;;;;;10.93;6.63;;;18.20;52.40;;;;;;3913173;30;20080;-64
2022/04/19 01:17:59;;;;;;;6.40;5.78;;;18.20;52.50;;;;;;3901060;30;20068;-64
2022/04/19 01:20:21;;;;;;;9.25;6.45;;;18.20;53.30;;;;;;3914445;30;20057;-64
2022/04/19 01:22:49;;;;;;;8.02;6.20;;;18.20;52.60;;;;;;3900253;30;20142;-64
2022/04/19 01:25:13;;;;;;;8.75;6.30;;;18.10;52.50;;;;;;3899612;30;20142;-64
2022/04/19 01:27:35;;;;;;;7.68;6.55;;;18.10;52.60;;;;;;3903859;30;20059;-64
2022/04/19 01:30:01;;;;;;;8.07;6.45;;;18.10;52.50;;;;;;3897048;30;20525;-64
2022/04/19 01:32:23;;;;;;;7.82;6.20;;;18.10;52.60;;;;;;3898869;30;20142;-64
2022/04/19 01:34:45;;;;;;;8.65;6.40;;;18.10;53.30;;;;;;3898561;30;20450;-64
2022/04/19 01:37:15;;;;;;;8.20;6.38;;;18.10;52.60;;;;;;3898438;30;20067;-64
2022/04/19 01:42:15;;;;;;;9.75;6.60;;;18.10;52.60;;;;;;3898331;30;20049;-64
2022/04/19 01:44:43;;;;;;;6.25;5.20;;;18.10;52.70;;;;;;3888788;30;21727;-65
2022/04/19 01:47:07;;;;;;;9.60;6.25;;;18.00;52.70;;;;;;3900423;30;20061;-64
2022/04/19 01:49:34;;;;;;;9.07;6.72;;;18.00;52.80;;;;;;3900655;30;20100;-63
2022/04/19 01:51:56;;;;;;;7.22;6.25;;;18.00;52.90;;;;;;3914378;30;20413;-63
2022/04/19 01:54:19;;;;;;;6.80;5.97;;;18.00;53.00;;;;;;3901032;30;20119;-63
2022/04/19 01:56:43;;;;;;;6.82;5.63;;;18.00;53.10;;;;;;3903121;30;20147;-63
2022/04/19 01:59:12;;;;;;;7.45;6.05;;;18.00;53.80;;;;;;3898087;30;21999;-63
2022/04/19 02:02:03;;;;;;;14.48;6.75;;;18.00;53.10;;;;;;3912332;30;20075;-64
2022/04/19 02:04:26;;;;;;;7.80;5.78;;;18.00;53.20;;;;;;3900515;30;20060;-63
2022/04/19 02:06:47;;;;;;;9.23;5.93;;;17.90;53.10;;;;;;3900473;30;20053;-63
2022/04/19 02:09:10;;;;;;;7.65;5.78;;;17.90;53.00;;;;;;3900434;30;20065;-64
2022/04/19 02:11:32;;;;;;;6.85;5.63;;;17.90;53.10;;;;;;3900471;30;20119;-63
2022/04/19 02:14:18;;;;;;;9.57;6.30;;;17.90;53.00;;;;;;3913243;30;20063;-64
2022/04/19 02:16:40;;;;;;;6.05;5.35;;;17.90;53.10;;;;;;3913717;30;20067;-63
2022/04/19 02:19:02;;;;;;;7.55;5.88;;;17.90;53.20;;;;;;3900070;30;20075;-63
2022/04/19 02:21:24;;;;;;;6.32;5.25;;;17.90;52.50;;;;;;3913584;30;20122;-63
2022/04/19 02:23:46;;;;;;;7.22;5.80;;;17.90;52.90;;;;;;3885158;30;20057;-64
2022/04/19 02:26:08;;;;;;;6.13;5.53;;;17.80;52.10;;;;;;3885601;30;20226;-64
2022/04/19 02:28:32;;;;;;;6.68;5.60;;;17.80;52.40;;;;;;3911971;30;20063;-64
2022/04/19 02:31:18;;;;;;;6.80;5.80;;;17.80;51.50;;;;;;3912939;30;20107;-63
2022/04/19 02:33:47;;;;;;;5.88;5.20;;;17.80;52.00;;;;;;3899276;30;20076;-64
2022/04/19 02:36:11;;;;;;;7.28;5.78;;;17.80;52.10;;;;;;3900164;30;20131;-64
2022/04/19 02:38:33;;;;;;;7.22;5.72;;;17.70;52.50;;;;;;3899330;30;20122;-64
2022/04/19 02:40:59;;;;;;;6.30;5.55;;;17.70;52.60;;;;;;3886030;30;20068;-63
2022/04/19 02:43:21;;;;;;;6.53;5.75;;;17.70;52.00;;;;;;3885771;30;20065;-64
2022/04/19 02:45:45;;;;;;;7.00;5.93;;;17.70;52.10;;;;;;3885594;30;20534;-63
2022/04/19 02:48:18;;;;;;;8.00;6.18;;;17.60;52.80;;;;;;3885965;30;20053;-64
2022/04/19 02:50:46;;;;;;;7.20;6.20;;;17.60;52.10;;;;;;3896083;30;20056;-64
2022/04/19 02:53:09;;;;;;;8.48;5.68;;;17.60;51.70;;;;;;3897532;30;20144;-63
2022/04/19 02:55:33;;;;;;;8.18;6.38;;;17.60;51.80;;;;;;3897941;30;20049;-64
2022/04/19 02:57:56;;;;;;;6.68;5.95;;;17.60;52.30;;;;;;3897701;30;20119;-63
2022/04/19 03:00:20;;;;;;;8.40;6.15;;;17.60;51.80;;;;;;3885455;30;20068;-64
2022/04/19 03:02:42;;;;;;;5.95;5.10;;;17.50;52.20;;;;;;3898722;30;20091;-63
2022/04/19 03:05:06;;;;;;;7.40;5.78;;;17.50;52.80;;;;;;3885458;30;20540;-64
2022/04/19 03:07:28;;;;;;;6.93;6.07;;;17.50;52.50;;;;;;3898340;30;20064;-64
2022/04/19 03:09:51;;;;;;;8.30;6.10;;;17.50;52.40;;;;;;3885546;30;20500;-65
2022/04/19 03:12:15;;;;;;;8.95;6.28;;;17.50;51.00;;;;;;3898950;30;20061;-65
2022/04/19 03:14:51;;;;;;;6.85;5.75;;;17.50;51.80;;;;;;3899296;30;20068;-66
2022/04/19 03:17:13;;;;;;;6.78;5.88;;;17.40;51.40;;;;;;3899551;30;20144;-66
2022/04/19 03:19:36;;;;;;;6.93;5.82;;;17.40;50.60;;;;;;3902211;30;20771;-65
2022/04/19 03:21:59;;;;;;;8.30;6.30;;;17.40;51.30;;;;;;3911574;30;20433;-66
2022/04/19 03:29:40;;;;;;;9.90;6.20;;;17.30;51.10;;;;;;3872477;30;20123;-68
2022/04/19 03:32:03;;;;;;;8.60;6.20;;;17.30;52.00;;;;;;3896258;30;20114;-65
2022/04/19 03:34:25;;;;;;;6.80;5.60;;;17.30;52.50;;;;;;3899396;30;20591;-65
2022/04/19 03:36:47;;;;;;;9.40;6.45;;;17.30;52.90;;;;;;3899246;30;20119;-65
2022/04/19 03:39:11;;;;;;;8.88;5.97;;;17.20;52.00;;;;;;3912097;30;20516;-65
2022/04/19 03:41:33;;;;;;;9.02;6.25;;;17.20;51.50;;;;;;3897165;30;20557;-65
2022/04/19 03:43:55;;;;;;;9.18;6.80;;;17.20;50.90;;;;;;3897625;30;20060;-65
2022/04/19 03:46:17;;;;;;;7.85;6.60;;;17.20;52.10;;;;;;3911026;30;20067;-65
2022/04/19 03:48:40;;;;;;;7.90;5.68;;;17.20;51.90;;;;;;3899355;30;20147;-64
2022/04/19 03:51:03;;;;;;;8.73;6.22;;;17.20;51.40;;;;;;3912550;30;20057;-64
2022/04/19 03:53:25;;;;;;;8.35;6.15;;;17.10;51.60;;;;;;3912080;30;20509;-64
2022/04/19 03:55:49;;;;;;;9.18;6.47;;;17.10;51.10;;;;;;3898984;30;20068;-65
2022/04/19 03:58:11;;;;;;;8.52;6.32;;;17.10;51.90;;;;;;3898995;30;20068;-64
2022/04/19 04:00:33;;;;;;;8.82;6.20;;;17.10;52.40;;;;;;3899263;30;20053;-65
2022/04/19 04:02:55;;;;;;;10.50;6.57;;;17.10;53.20;;;;;;3886924;30;20058;-65
2022/04/19 04:05:23;;;;;;;9.10;6.38;;;17.00;52.50;;;;;;3904466;30;20068;-65
2022/04/19 04:07:46;;;;;;;10.73;7.15;;;17.10;51.80;;;;;;3898976;30;20057;-64
2022/04/19 04:10:13;;;;;;;9.15;6.80;;;17.00;51.30;;;;;;3899048;30;20107;-64
2022/04/19 04:12:37;;;;;;;11.70;6.72;;;17.00;52.00;;;;;;3899320;30;20061;-65
2022/04/19 04:15:00;;;;;;;10.55;6.57;;;17.00;52.60;;;;;;3912078;30;20118;-64
2022/04/19 04:17:23;;;;;;;9.77;6.32;;;17.00;52.00;;;;;;3899354;30;20060;-65
2022/04/19 04:19:45;;;;;;;8.27;6.30;;;17.00;52.40;;;;;;3898812;30;20080;-64
2022/04/19 04:22:12;;;;;;;9.02;6.70;;;17.00;52.00;;;;;;3898821;30;20060;-64
2022/04/19 04:24:34;;;;;;;8.82;6.95;;;17.00;51.50;;;;;;3911791;30;20048;-64
2022/04/19 04:26:56;;;;;;;11.63;7.32;;;17.00;51.30;;;;;;3912536;30;20059;-64
2022/04/19 04:29:24;;;;;;;9.80;7.43;;;17.00;51.50;;;;;;3898713;30;20053;-64
2022/04/19 04:31:48;;;;;;;9.23;6.78;;;16.90;52.50;;;;;;3899092;30;20482;-65
2022/04/19 04:34:12;;;;;;;10.43;7.07;;;16.90;52.80;;;;;;3898769;30;20143;-64
2022/04/19 04:36:35;;;;;;;9.80;6.95;;;16.90;53.00;;;;;;3892299;30;20064;-64
2022/04/19 04:38:57;;;;;;;8.95;6.68;;;16.90;53.40;;;;;;3898708;30;20142;-64
2022/04/19 04:41:29;;;;;;;9.55;6.75;;;16.90;54.00;;;;;;3898656;30;20064;-64
2022/04/19 04:43:51;;;;;;;10.15;6.78;;;16.90;54.40;;;;;;3898848;30;20075;-64
2022/04/19 04:51:34;;;;;;;10.70;7.18;;;16.90;54.60;;;;;;3910205;30;20475;-65
2022/04/19 04:53:56;;;;;;;7.63;5.93;;;16.90;54.60;;;;;;3911260;30;20102;-62
2022/04/19 04:56:23;;;;;;;9.88;6.88;;;16.90;54.60;;;;;;3906176;30;20057;-64
2022/04/19 04:58:45;;;;;;;10.75;7.28;;;16.90;54.80;;;;;;3900693;30;20131;-64
2022/04/19 05:01:07;;;;;;;10.32;6.68;;;17.00;55.20;;;;;;3901347;30;20064;-64
2022/04/19 05:03:32;;;;;;;12.85;7.47;;;17.00;55.10;;;;;;3901551;30;20053;-64
2022/04/19 05:05:54;;;;;;;11.10;6.80;;;17.00;54.60;;;;;;3901387;30;20057;-64
2022/04/19 05:08:18;;;;;;;8.38;6.13;;;17.00;54.30;;;;;;3898984;30;20049;-64
2022/04/19 05:10:40;;;;;;;9.88;6.80;;;17.00;53.30;;;;;;3900233;30;20088;-64
2022/04/19 05:13:09;;;;;;;12.40;7.00;;;17.00;53.80;;;;;;3911593;30;20118;-64
2022/04/19 05:15:31;;;;;;;10.63;7.20;;;17.00;53.90;;;;;;3910414;30;20122;-65
2022/04/19 05:17:53;;;;;;;12.90;8.10;;;17.00;54.40;;;;;;3899661;30;20068;-65
2022/04/19 05:20:16;;;;;;;14.43;7.13;;;17.00;54.90;;;;;;3912259;30;20064;-65
2022/04/19 05:22:38;;;;;;;10.23;6.97;;;17.00;53.80;;;;;;3900532;30;20135;-65
2022/04/19 05:25:01;;;;;;;10.52;7.50;;;17.10;53.50;;;;;;3915386;30;20058;-64
2022/04/19 05:27:23;;;;;;;10.80;7.10;;;17.10;53.30;;;;;;3909267;30;20529;-64
2022/04/19 05:29:45;;;;;;;11.13;7.88;;;17.10;53.20;;;;;;3901146;30;20112;-65
2022/04/19 05:32:09;;;;;;;11.30;6.90;;;17.10;54.00;;;;;;3901039;30;20049;-65
2022/04/19 05:34:32;;;;;;;9.55;7.25;;;17.10;53.50;;;;;;3900769;30;20111;-64
2022/04/19 05:36:55;;;;;;;11.25;7.32;;;17.10;53.00;;;;;;3900897;30;20057;-64
2022/04/19 05:39:17;;;;;;;12.85;7.38;;;17.10;51.90;;;;;;3900954;30;20202;-65
2022/04/19 05:41:40;;;;;;;10.90;6.85;;;17.10;52.20;;;;;;3914321;30;20114;-67
2022/04/19 05:44:03;;;;;;;10.25;7.40;;;17.10;52.30;;;;;;3901006;30;20115;-66
2022/04/19 05:46:25;;;;;;;10.90;6.80;;;17.10;52.10;;;;;;3900851;30;20063;-66
2022/04/19 05:48:48;;;;;;;12.98;6.53;;;17.10;53.00;;;;;;3898041;30;20064;-66
2022/04/19 05:51:10;;;;;;;9.77;7.25;;;17.10;53.40;;;;;;3903207;30;20407;-67
2022/04/19 05:53:34;;;;;;;10.73;7.40;;;17.10;52.70;;;;;;3912688;30;20059;-66
2022/04/19 05:55:56;;;;;;;9.73;6.90;;;17.20;52.50;;;;;;3885881;30;20053;-66
2022/04/19 05:58:18;;;;;;;10.55;7.43;;;17.10;53.20;;;;;;3904600;30;20114;-66
2022/04/19 06:00:41;;;;;;;14.20;6.72;;;17.10;53.10;;;;;;3912680;30;20578;-66
2022/04/19 06:05:42;;;;;;;10.70;6.78;;;17.10;53.60;;;;;;3913865;30;20516;-67
2022/04/19 06:08:06;;;;;;;14.93;7.30;;;17.10;53.50;;;;;;3912557;30;20053;-66
2022/04/19 06:10:29;;;;;;;13.48;6.85;;;17.10;53.60;;;;;;3912765;30;20098;-66
2022/04/19 06:12:51;;;;;;;8.57;6.68;;;17.10;53.60;;;;;;3912499;30;20405;-66
2022/04/19 06:15:14;;;;;;;11.77;7.32;;;17.20;53.80;;;;;;3912701;30;20089;-66
2022/04/19 06:17:38;;;;;;;12.02;7.13;;;17.20;53.00;;;;;;3912537;30;20135;-66
2022/04/19 06:20:09;;;;;;;8.65;6.25;;;17.20;52.70;;;;;;3911809;30;20122;-66
2022/04/19 06:22:32;;;;;;;9.98;7.00;;;17.30;52.90;;;;;;3912647;30;20134;-66
2022/04/19 06:24:59;;;;;;;10.95;7.20;;;17.30;52.80;;;;;;3912468;30;20501;-66
2022/04/19 06:27:23;;;;;;;10.90;6.45;;;17.20;52.60;;;;;;3912143;30;20413;-66
2022/04/19 06:29:45;;;;;;;10.38;7.30;;;17.30;52.80;;;;;;3912405;30;20061;-66
2022/04/19 06:32:08;;;;;;;13.10;6.68;;;17.40;52.60;;;;;;3911876;30;20060;-66
2022/04/19 06:34:35;;;;;;;11.25;6.50;;;17.40;52.70;;;;;;3907867;30;20072;-67
2022/04/19 06:37:05;;;;;;;9.85;6.95;;;17.40;52.10;;;;;;3894361;30;20144;-66
2022/04/19 06:39:28;;;;;;;9.57;6.55;;;17.40;51.30;;;;;;3899844;30;20114;-66
2022/04/19 06:41:53;;;;;;;11.23;6.72;;;17.50;52.20;;;;;;3899968;30;20143;-66
2022/04/19 06:44:19;;;;;;;11.15;6.95;;;17.50;52.30;;;;;;3899686;30;20065;-67
2022/04/19 06:46:44;;;;;;;10.20;6.20;;;17.50;51.80;;;;;;3899956;30;20137;-67
2022/04/19 06:49:06;;;;;;;7.97;6.60;;;17.60;52.30;;;;;;3899831;30;20053;-67
2022/04/19 06:51:30;;;;;;;11.45;6.38;;;17.60;52.20;;;;;;3900058;30;20048;-67
2022/04/19 06:53:57;;;;;;;11.38;7.00;;;17.60;52.50;;;;;;3899998;30;20060;-67
2022/04/19 06:56:30;;;;;;;10.43;6.18;;;17.60;52.60;;;;;;3897580;30;20066;-66
2022/04/19 06:58:54;;;;;;;8.98;6.43;;;17.70;52.70;;;;;;3902607;30;20060;-67
2022/04/19 07:01:18;;;;;;;9.82;6.55;;;17.80;52.60;;;;;;3912435;30;20076;-67
2022/04/19 07:03:45;;;;;;;9.25;6.03;;;17.80;52.10;;;;;;3911873;30;20430;-66
2022/04/19 07:06:25;;;;;;;10.55;6.72;;;17.80;51.30;;;;;;3885122;30;20066;-66
2022/04/19 07:08:47;;;;;;;11.38;6.38;;;17.80;51.20;;;;;;3885374;30;20498;-66
2022/04/19 07:11:11;;;;;;;10.82;6.20;;;17.90;51.50;;;;;;3884747;30;20057;-66
2022/04/19 07:13:38;;;;;;;8.63;5.13;;;17.80;51.60;;;;;;3898800;30;20068;-66
2022/04/19 07:16:02;;;;;;;7.90;5.97;;;17.90;52.30;;;;;;3899158;30;20159;-65
2022/04/19 07:18:27;;;;;;;7.75;5.55;;;17.90;51.40;;;;;;3899231;30;20071;-66
2022/04/19 07:26:40;;;;;;;8.23;5.93;;;18.00;51.90;;;;;;3867437;30;20091;-66
2022/04/19 07:29:05;;;;;;;8.65;6.00;;;18.00;51.50;;;;;;3895900;30;20437;-66
2022/04/19 07:31:27;;;;;;;7.13;5.57;;;18.00;51.20;;;;;;3911634;30;20074;-67
2022/04/19 07:33:55;;;;;;;8.70;5.72;;;18.00;51.50;;;;;;3911482;30;20393;-67
2022/04/19 07:36:19;;;;;;;7.85;5.93;;;18.00;50.40;;;;;;3911597;30;20055;-66
2022/04/19 07:38:42;;;;;;;6.18;5.03;;;18.10;50.20;;;;;;3911385;30;20131;-66
2022/04/19 07:41:14;;;;;;;8.60;5.63;;;18.10;51.10;;;;;;3911466;30;20067;-66
2022/04/19 07:43:36;;;;;;;6.30;4.97;;;18.10;51.00;;;;;;3911607;30;20413;-66
2022/04/19 07:45:58;;;;;;;7.38;4.60;;;18.10;50.30;;;;;;3912520;30;20697;-66
2022/04/19 07:48:24;;;;;;;5.40;4.82;;;18.20;50.10;;;;;;3911209;30;20048;-66
2022/04/19 07:50:48;;;;;;;9.68;5.25;;;18.20;50.60;;;;;;3911449;30;20126;-66
2022/04/19 07:53:11;;;;;;;4.75;3.85;;;18.20;51.00;;;;;;3911260;30;20126;-66
2022/04/19 07:55:33;;;;;;;8.43;3.92;;;18.20;50.90;;;;;;3910750;30;20111;-66
2022/04/19 07:57:56;;;;;;;5.47;3.92;;;18.30;50.40;;;;;;3911445;30;20084;-66
2022/04/19 08:00:19;;;;;;;6.00;3.67;;;18.30;49.30;;;;;;3911187;30;20529;-66
2022/04/19 08:02:43;;;;;;;4.90;3.53;;;18.40;48.90;;;;;;3910567;30;20448;-66
2022/04/19 08:05:10;;;;;;;3.83;3.53;;;18.30;48.10;;;;;;3899253;30;20053;-66
2022/04/19 08:07:34;;;;;;;5.90;3.53;;;18.40;48.10;;;;;;3911076;30;20083;-66
2022/04/19 08:10:00;;;;;;;4.45;2.75;;;18.40;48.00;;;;;;3910904;30;20073;-66
2022/04/19 08:12:22;;;;;;;2.72;2.53;;;18.40;48.30;;;;;;3912371;30;20770;-67
2022/04/19 08:14:44;;;;;;;3.08;2.78;;;18.40;48.10;;;;;;3911207;30;20068;-66
2022/04/19 08:17:06;;;;;;;2.97;2.58;;;18.40;47.40;;;;;;3911197;30;20121;-67
2022/04/19 08:19:28;;;;;;;4.07;2.70;;;18.40;46.30;;;;;;3911347;30;20056;-67
2022/04/19 08:21:51;;;;;;;4.55;2.53;;;18.40;45.40;;;;;;3911760;30;20493;-66
2022/04/19 08:24:15;;;;;;;4.07;2.63;;;18.50;45.30;;;;;;3911130;30;20053;-66
2022/04/19 08:26:37;;;;;;;3.00;2.72;;;18.50;45.80;;;;;;3911166;30;20056;-67
2022/04/19 08:28:59;;;;;;;2.95;2.70;;;18.50;46.00;;;;;;3912673;30;20068;-67
2022/04/19 08:31:21;;;;;;;3.17;2.05;;;18.50;46.00;;;;;;3911364;30;20063;-66
2022/04/19 08:33:43;;;;;;;2.10;2.00;;;18.50;45.90;;;;;;3913826;30;20068;-66
2022/04/19 08:36:09;;;;;;;2.55;2.08;;;18.50;44.80;;;;;;3913886;30;20095;-66
2022/04/19 08:38:32;;;;;;;5.28;2.03;;;18.50;45.00;;;;;;3915245;30;20102;-66
2022/04/19 08:40:56;;;;;;;2.28;2.08;;;18.50;45.70;;;;;;3914095;30;20140;-66
2022/04/19 08:43:19;;;;;;;2.22;2.03;;;18.50;46.40;;;;;;3913703;30;20067;-66
2022/04/19 08:45:43;;;;;;;2.15;1.95;;;18.50;46.90;;;;;;3915449;30;20064;-67
2022/04/19 08:48:11;;;;;;;2.13;2.03;;;18.50;47.00;;;;;;3915192;30;20520;-66
2022/04/19 08:50:32;;;;;;;2.50;2.30;;;18.50;47.80;;;;;;3915048;30;20052;-66
2022/04/19 08:58:12;;;;;;;2.00;1.90;;;18.60;47.90;;;;;;3914732;30;20056;-66
2022/04/19 09:00:34;;;;;;;3.80;2.30;;;18.60;47.90;;;;;;3914687;30;20064;-66
2022/04/19 09:02:58;;;;;;;5.07;2.78;;;18.60;47.40;;;;;;3914562;30;20147;-66
2022/04/19 09:05:23;;;;;;;3.55;2.60;;;18.70;47.10;;;;;;3914591;30;20167;-66
2022/04/19 09:07:46;;;;;;;2.80;2.60;;;18.70;47.20;;;;;;3915231;30;20057;-66
2022/04/19 09:10:11;;;;;;;3.00;2.80;;;18.70;47.60;;;;;;3914751;30;20126;-66
2022/04/19 09:12:33;;;;;;;3.00;2.47;;;18.70;47.50;;;;;;3914684;30;20417;-66
2022/04/19 09:14:58;;;;;;;5.07;3.30;;;18.80;47.90;;;;;;3914806;30;20083;-66
2022/04/19 09:17:31;;;;;;;3.08;2.78;;;18.70;47.50;;;;;;3914558;30;20465;-66
2022/04/19 09:19:53;;;;;;;2.60;2.40;;;18.80;47.80;;;;;;3912926;30;20159;-66
2022/04/19 09:22:26;;;;;;;3.13;2.83;;;18.80;47.80;;;;;;3911627;30;20056;-66
2022/04/19 09:24:47;;;;;;;2.45;2.25;;;18.80;47.00;;;;;;3914208;30;20662;-66
2022/04/19 09:27:09;;;;;;;2.60;2.40;;;18.90;47.10;;;;;;3914546;30;20057;-66
2022/04/19 09:29:31;;;;;;;4.18;2.72;;;18.90;47.70;;;;;;3913362;30;20064;-67
2022/04/19 09:31:57;;;;;;;2.95;2.25;;;18.90;47.30;;;;;;3914556;30;20100;-67
2022/04/19 09:34:24;;;;;;;3.20;2.53;;;18.90;47.70;;;;;;3914247;30;20069;-67
2022/04/19 09:36:53;;;;;;;2.15;2.03;;;18.90;47.40;;;;;;3914483;30;20057;-66
2022/04/19 09:39:26;;;;;;;2.42;2.10;;;18.90;46.80;;;;;;3914100;30;20064;-66
2022/04/19 09:42:00;;;;;;;2.03;1.90;;;19.00;47.30;;;;;;3914401;30;20130;-67
2022/04/19 09:44:22;;;;;;;4.45;2.40;;;19.00;48.40;;;;;;3913822;30;20402;-67
2022/04/19 09:47:04;;;;;;;2.15;1.95;;;19.00;48.00;;;;;;3912818;30;20059;-67
2022/04/19 09:49:42;;;;;;;2.50;2.30;;;19.10;47.90;;;;;;3914192;30;20056;-67
2022/04/19 09:52:04;;;;;;;4.65;2.50;;;19.10;47.90;;;;;;3914238;30;20052;-67
2022/04/19 09:54:26;;;;;;;2.92;2.42;;;19.10;48.40;;;;;;3914006;30;20056;-67
2022/04/19 09:56:48;;;;;;;2.53;2.33;;;19.10;48.50;;;;;;3912953;30;20485;-70
2022/04/19 09:59:16;;;;;;;2.65;2.15;;;19.20;48.20;;;;;;3914235;30;20081;-69
2022/04/19 10:10:03;;;;;;;2.72;2.53;;;19.40;45.60;;;;;;3851491;30;20060;-68
2022/04/19 10:12:35;;;;;;;2.38;2.20;;;19.40;45.30;;;;;;3892589;30;20068;-69
2022/04/19 10:15:14;;;;;;;2.58;2.35;;;19.40;45.30;;;;;;3856651;30;20060;-68
2022/04/19 10:17:38;;;;;;;4.97;3.00;;;19.40;45.60;;;;;;3883603;30;20059;-68
2022/04/19 10:20:04;;;;;;;3.05;2.60;;;19.40;45.70;;;;;;3913632;30;20053;-69
2022/04/19 10:22:27;;;;;;;2.92;2.70;;;19.40;45.80;;;;;;3913700;30;20064;-68
2022/04/19 10:24:52;;;;;;;5.85;2.65;;;19.30;46.40;;;;;;3913187;30;20456;-69
2022/04/19 10:27:15;;;;;;;2.95;1.95;;;19.30;47.00;;;;;;3913226;30;20064;-70
2022/04/19 10:29:37;;;;;;;2.67;2.47;;;19.40;46.70;;;;;;3914033;30;20067;-69
2022/04/19 10:32:02;;;;;;;2.85;2.30;;;19.40;47.40;;;;;;3913862;30;20578;-69
2022/04/19 10:34:25;;;;;;;2.30;2.10;;;19.40;47.60;;;;;;3914173;30;20083;-69
2022/04/19 10:36:54;;;;;;;2.60;2.40;;;19.40;47.10;;;;;;3913618;30;20363;-68
2022/04/19 10:39:26;;;;;;;2.90;2.58;;;19.40;46.50;;;;;;3913634;30;20060;-68
2022/04/19 10:41:52;;;;;;;2.55;2.35;;;19.40;46.90;;;;;;3913441;30;20822;-68
2022/04/19 10:44:22;;;;;;;2.72;2.53;;;19.50;47.00;;;;;;3913243;30;20063;-68
2022/04/19 10:46:45;;;;;;;3.13;2.83;;;19.50;45.80;;;;;;3912123;30;20521;-69
2022/04/19 10:49:23;;;;;;;3.10;2.60;;;19.50;46.50;;;;;;3911325;30;20057;-69
2022/04/19 10:51:45;;;;;;;7.60;2.65;;;19.50;45.20;;;;;;3913252;30;20114;-68
2022/04/19 10:54:08;;;;;;;4.45;2.55;;;19.50;45.20;;;;;;3913381;30;20048;-69
2022/04/19 10:56:30;;;;;;;2.72;2.53;;;19.50;45.60;;;;;;3912999;30;20097;-69
2022/04/19 10:58:52;;;;;;;2.72;2.22;;;19.60;46.70;;;;;;3913584;30;20082;-69
2022/04/19 11:01:30;;;;;;;2.90;2.08;;;19.60;46.80;;;;;;3913575;30;20390;-69
2022/04/19 11:03:54;;;;;;;2.40;2.30;;;19.50;46.70;;;;;;3913164;30;20524;-69
2022/04/19 11:06:35;;;;;;;6.55;2.90;;;19.60;44.90;;;;;;3911784;30;20052;-68
2022/04/19 11:09:19;;;;;;;3.55;2.45;;;19.50;43.50;;;;;;3913159;30;20138;-69
2022/04/19 11:11:46;;;;;;;3.33;2.35;;;19.50;43.90;;;;;;3913249;30;20114;-69
2022/04/19 11:14:18;;;;;;;15.82;3.70;;;19.50;44.30;;;;;;3913264;30;20057;-69
2022/04/19 11:16:40;;;;;;;4.20;2.70;;;19.50;43.50;;;;;;3913223;30;20065;-69
2022/04/19 11:19:14;;;;;;;3.08;2.10;;;19.50;45.20;;;;;;3913153;30;20062;-69
2022/04/19 11:21:55;;;;;;;3.30;3.03;;;19.50;44.70;;;;;;3904362;30;20056;-68
2022/04/19 11:24:54;;;;;;;11.53;3.10;;;19.50;45.00;;;;;;3913195;30;20064;-69
2022/04/19 11:27:20;;;;;;;4.07;2.80;;;19.50;44.50;;;;;;3912622;30;20294;-69
2022/04/19 11:29:48;;;;;;;4.15;2.83;;;19.50;44.70;;;;;;3912076;30;20076;-69
2022/04/19 11:32:10;;;;;;;2.85;2.65;;;19.50;45.40;;;;;;3911044;30;20059;-69
2022/04/19 11:34:33;;;;;;;3.42;3.22;;;19.50;45.70;;;;;;3912859;30;20473;-69
2022/04/19 11:36:58;;;;;;;3.40;3.15;;;19.50;45.90;;;;;;3912955;30;20056;-69
2022/04/19 11:46:44;;;;;;;5.90;3.00;;;19.50;45.00;;;;;;3912794;30;20052;-70
2022/04/19 11:47:25;;;;;;;4.13;2.42;;;19.50;46.40;;;;;;3912720;30;20827;-69
2022/04/19 11:49:48;;;;;;;5.07;2.55;;;19.60;46.30;;;;;;3912754;30;20056;-69
2022/04/19 11:52:12;;;;;;;7.97;2.50;;;19.60;45.40;;;;;;3913059;30;20144;-68
2022/04/19 11:54:34;;;;;;;12.48;2.50;;;19.60;44.50;;;;;;3912874;30;20501;-69
2022/04/19 11:56:58;;;;;;;2.05;1.95;;;19.60;44.60;;;;;;3912936;30;20150;-69
2022/04/19 11:59:27;;;;;;;3.25;2.22;;;19.60;44.80;;;;;;3912632;30;20049;-69
2022/04/19 12:01:50;;;;;;;2.67;2.47;;;19.60;45.30;;;;;;3912823;30;20401;-69
2022/04/19 12:04:14;;;;;;;3.38;2.30;;;19.60;45.00;;;;;;3912902;30;20110;-69
2022/04/19 12:06:36;;;;;;;3.00;2.20;;;19.60;46.30;;;;;;3913610;30;20064;-69
2022/04/19 12:08:58;;;;;;;10.00;2.95;;;19.70;45.20;;;;;;3915773;30;20048;-69
2022/04/19 12:11:25;;;;;;;3.67;2.72;;;19.60;45.00;;;;;;3915764;30;20114;-69
2022/04/19 12:13:48;;;;;;;5.10;2.67;;;19.60;45.60;;;;;;3915489;30;20159;-68
2022/04/19 12:16:29;;;;;;;2.83;2.55;;;19.70;45.70;;;;;;3915730;30;20059;-69
2022/04/19 12:18:54;;;;;;;2.60;2.50;;;19.70;45.90;;;;;;3915590;30;20079;-69
2022/04/19 12:21:34;;;;;;;2.70;2.50;;;19.70;45.50;;;;;;3915618;30;20481;-69
2022/04/19 12:23:56;;;;;;;3.00;2.70;;;19.70;44.50;;;;;;3915467;30;20110;-69
2022/04/19 12:26:22;;;;;;;4.15;3.33;;;19.70;44.60;;;;;;3915544;30;20555;-69
2022/04/19 12:28:46;;;;;;;3.10;2.90;;;19.80;44.90;;;;;;3915529;30;20067;-69
2022/04/19 12:31:08;;;;;;;3.85;2.88;;;19.70;44.80;;;;;;3915186;30;20048;-70
2022/04/19 12:33:30;;;;;;;11.80;3.40;;;19.70;43.50;;;;;;3915674;30;20370;-70
2022/04/19 12:35:55;;;;;;;8.18;2.97;;;19.70;43.70;;;;;;3915547;30;20049;-69
2022/04/19 12:38:17;;;;;;;2.75;2.55;;;19.80;44.10;;;;;;3913090;30;20159;-69
2022/04/19 12:40:40;;;;;;;3.63;2.85;;;19.70;44.30;;;;;;3915080;30;20154;-69
2022/04/19 12:43:02;;;;;;;3.47;3.17;;;19.70;44.60;;;;;;3915038;30;20076;-69
2022/04/19 12:45:31;;;;;;;3.35;3.03;;;19.70;43.80;;;;;;3914755;30;20492;-69
2022/04/19 12:47:57;;;;;;;3.58;3.38;;;19.70;43.80;;;;;;3914702;30;20448;-69
2022/04/19 12:50:20;;;;;;;7.65;3.95;;;19.70;44.00;;;;;;3915111;30;20133;-69
2022/04/19 12:52:44;;;;;;;3.90;2.88;;;19.70;44.30;;;;;;3915207;30;20063;-69
2022/04/19 12:55:09;;;;;;;3.33;3.13;;;19.70;44.50;;;;;;3915372;30;20147;-69
2022/04/19 12:57:34;;;;;;;6.03;3.35;;;19.60;43.70;;;;;;3915463;30;20512;-69
2022/04/19 12:59:55;;;;;;;11.73;4.00;;;19.60;44.00;;;;;;3914765;30;20186;-69
2022/04/19 13:02:19;;;;;;;19.13;4.28;;;19.60;45.40;;;;;;3915029;30;20462;-69
2022/04/19 13:04:41;;;;;;;3.90;3.53;;;19.60;44.50;;;;;;3913914;30;20421;-69
2022/04/19 13:12:26;;;;;;;10.02;3.83;;;19.60;44.70;;;;;;3914818;30;20111;-69
2022/04/19 13:14:50;;;;;;;5.05;3.95;;;19.70;44.30;;;;;;3914822;30;20136;-68
2022/04/19 13:17:18;;;;;;;3.88;3.40;;;19.60;45.00;;;;;;3913821;30;20065;-69
2022/04/19 13:19:41;;;;;;;4.53;3.88;;;19.60;45.00;;;;;;3914038;30;20214;-69
2022/04/19 13:22:03;;;;;;;4.63;3.50;;;19.70;44.80;;;;;;3914823;30;20072;-68